Time;durP1;ratioP1;P1;durP2;ratioP2;P2;SDS_P1;SDS_P2;PMS_P1;PMS_P2;Temp;Humidity;BMP_temperature;BMP_pressure;BME280_temperature;BME280_humidity;BME280_pressure;Samples;Min_cycle;Max_cycle;Signal;HPM_P1;HPM_P2
2022/03/21 00:01:07;;;;;;;13.33;7.73;;;0.90;60.00;;;;;;5013688;28;20213;-71
2022/03/21 00:03:34;;;;;;;18.47;7.93;;;0.80;60.10;;;;;;5011536;28;20189;-70
2022/03/21 00:06:00;;;;;;;18.20;8.93;;;0.80;60.10;;;;;;5010653;28;20203;-70
2022/03/21 00:08:26;;;;;;;12.70;7.47;;;0.80;60.20;;;;;;5008085;28;20204;-72
2022/03/21 00:10:54;;;;;;;9.90;7.13;;;0.80;60.40;;;;;;5007677;28;20219;-70
2022/03/21 00:13:21;;;;;;;13.80;8.23;;;0.70;60.30;;;;;;5009023;28;20185;-70
2022/03/21 00:15:48;;;;;;;15.30;7.97;;;0.70;60.30;;;;;;5009527;28;20181;-70
2022/03/21 00:18:15;;;;;;;17.50;7.77;;;0.70;60.30;;;;;;5013673;28;20617;-70
2022/03/21 00:20:42;;;;;;;11.83;7.00;;;0.70;60.50;;;;;;5010888;28;20236;-72
2022/03/21 00:23:08;;;;;;;13.70;7.77;;;0.70;60.60;;;;;;5018850;28;20199;-70
2022/03/21 00:25:34;;;;;;;20.33;8.87;;;0.70;60.60;;;;;;5011993;28;20196;-71
2022/03/21 00:27:59;;;;;;;14.17;7.37;;;0.70;60.60;;;;;;5015628;28;20180;-71
2022/03/21 00:30:26;;;;;;;10.77;7.30;;;0.70;60.70;;;;;;5011166;28;20193;-70
2022/03/21 00:32:53;;;;;;;13.43;7.93;;;0.60;60.60;;;;;;5011478;28;20207;-71
2022/03/21 00:35:20;;;;;;;18.97;8.57;;;0.60;60.70;;;;;;5012692;28;20184;-71
2022/03/21 00:37:46;;;;;;;11.20;6.67;;;0.60;60.80;;;;;;5008616;28;20670;-71
2022/03/21 00:40:14;;;;;;;17.17;8.60;;;0.50;61.00;;;;;;5010779;28;20215;-71
2022/03/21 00:42:41;;;;;;;11.77;7.90;;;0.50;61.10;;;;;;5016057;28;20187;-70
2022/03/21 00:45:10;;;;;;;12.00;7.27;;;0.40;61.20;;;;;;5006986;28;20192;-70
2022/03/21 00:47:36;;;;;;;19.27;8.80;;;0.40;61.30;;;;;;5012595;28;20223;-70
2022/03/21 00:50:03;;;;;;;13.40;7.87;;;0.40;61.30;;;;;;5013497;28;20219;-70
2022/03/21 00:52:30;;;;;;;15.23;7.63;;;0.40;61.30;;;;;;5014555;28;20189;-70
2022/03/21 00:54:56;;;;;;;17.23;7.80;;;0.30;61.60;;;;;;5008216;28;20842;-70
2022/03/21 00:57:22;;;;;;;15.77;8.23;;;0.30;61.60;;;;;;5007215;28;20279;-72
2022/03/21 00:59:48;;;;;;;11.93;6.90;;;0.30;61.80;;;;;;5018155;28;20585;-71
2022/03/21 01:02:13;;;;;;;12.00;6.87;;;0.30;62.00;;;;;;5015088;28;20264;-72
2022/03/21 01:04:39;;;;;;;10.73;7.23;;;0.30;62.10;;;;;;5014490;28;20177;-70
2022/03/21 01:07:05;;;;;;;11.80;7.00;;;0.20;62.20;;;;;;5014556;28;20290;-69
2022/03/21 01:09:32;;;;;;;12.43;6.93;;;0.20;62.10;;;;;;5014051;28;20191;-70
2022/03/21 01:12:00;;;;;;;7.20;5.57;;;0.20;62.00;;;;;;5011135;28;20215;-70
2022/03/21 01:14:26;;;;;;;9.80;6.27;;;0.20;62.10;;;;;;5016248;28;20282;-69
2022/03/21 01:16:55;;;;;;;9.60;5.63;;;0.20;62.00;;;;;;5016062;28;20191;-73
2022/03/21 01:19:21;;;;;;;17.17;7.57;;;0.20;62.00;;;;;;5016665;28;20212;-69
2022/03/21 01:21:46;;;;;;;8.20;6.37;;;0.20;61.90;;;;;;5016181;28;20183;-69
2022/03/21 01:24:12;;;;;;;11.43;6.07;;;0.20;62.20;;;;;;5014691;28;20590;-70
2022/03/21 01:26:38;;;;;;;12.70;6.17;;;0.20;62.40;;;;;;5016090;28;20204;-70
2022/03/21 01:29:04;;;;;;;10.57;6.33;;;0.20;62.60;;;;;;5016023;28;20266;-69
2022/03/21 01:31:30;;;;;;;8.13;6.50;;;0.10;62.70;;;;;;5019432;28;20649;-70
2022/03/21 01:33:55;;;;;;;7.53;5.87;;;0.10;62.60;;;;;;5015067;28;20176;-70
2022/03/21 01:36:22;;;;;;;9.90;6.27;;;0.10;62.90;;;;;;5017124;28;20177;-70
2022/03/21 01:38:48;;;;;;;11.53;5.97;;;0.10;63.10;;;;;;5016830;28;20173;-70
2022/03/21 01:41:13;;;;;;;13.07;6.90;;;0.10;63.80;;;;;;5016277;28;20995;-70
2022/03/21 01:43:59;;;;;;;12.33;6.80;;;0.00;63.70;;;;;;5012036;28;20181;-70
2022/03/21 01:46:25;;;;;;;10.13;6.13;;;0.00;63.90;;;;;;5013639;28;20180;-71
2022/03/21 01:48:51;;;;;;;17.10;6.97;;;0.00;63.90;;;;;;5012813;28;20188;-70
2022/03/21 01:51:16;;;;;;;12.43;7.43;;;-0.10;64.40;;;;;;5014141;28;20185;-70
2022/03/21 01:56:27;;;;;;;18.90;9.13;;;-0.10;64.60;;;;;;5015816;28;20594;-69
2022/03/21 01:58:54;;;;;;;12.03;7.53;;;-0.20;64.50;;;;;;5012519;28;20724;-69
2022/03/21 02:01:20;;;;;;;15.67;8.53;;;-0.20;64.80;;;;;;5014619;28;20205;-70
2022/03/21 02:03:46;;;;;;;15.70;9.50;;;-0.20;64.70;;;;;;5013748;28;20219;-70
2022/03/21 02:06:12;;;;;;;17.87;9.87;;;-0.30;64.70;;;;;;5018336;28;20224;-69
2022/03/21 02:08:37;;;;;;;19.03;11.07;;;-0.30;64.90;;;;;;5017929;28;20776;-69
2022/03/21 02:11:06;;;;;;;22.87;10.73;;;-0.30;64.60;;;;;;5013762;28;20216;-70
2022/03/21 02:13:34;;;;;;;20.83;11.07;;;-0.30;64.70;;;;;;5004801;28;20251;-69
2022/03/21 02:16:00;;;;;;;25.10;10.77;;;-0.30;64.90;;;;;;5008531;28;20180;-70
2022/03/21 02:18:28;;;;;;;24.17;10.97;;;-0.30;64.80;;;;;;5016510;28;20181;-71
2022/03/21 02:20:56;;;;;;;26.20;10.70;;;-0.30;65.00;;;;;;5016220;28;20243;-71
2022/03/21 02:23:55;;;;;;;21.83;11.83;;;-0.30;65.10;;;;;;5017669;28;20189;-69
2022/03/21 02:26:22;;;;;;;19.63;11.10;;;-0.40;65.10;;;;;;5011392;28;20192;-70
2022/03/21 02:28:49;;;;;;;19.10;10.57;;;-0.40;65.10;;;;;;5013085;28;20189;-70
2022/03/21 02:31:16;;;;;;;22.40;10.60;;;-0.30;65.00;;;;;;5015556;28;20181;-69
2022/03/21 02:33:42;;;;;;;25.40;11.70;;;-0.40;64.80;;;;;;5017142;28;20779;-69
2022/03/21 02:36:11;;;;;;;26.07;10.13;;;-0.40;64.90;;;;;;5017859;28;20181;-69
2022/03/21 02:38:38;;;;;;;22.17;10.43;;;-0.40;64.80;;;;;;5012948;28;20184;-70
2022/03/21 02:41:03;;;;;;;17.33;9.47;;;-0.40;64.80;;;;;;5011815;28;20311;-71
2022/03/21 02:43:29;;;;;;;19.57;10.07;;;-0.40;64.80;;;;;;5014248;28;20267;-71
2022/03/21 02:46:07;;;;;;;18.03;8.80;;;-0.40;64.80;;;;;;5010963;28;20185;-72
2022/03/21 02:48:33;;;;;;;19.63;9.53;;;-0.40;64.60;;;;;;5015134;28;20697;-71
2022/03/21 02:51:02;;;;;;;13.77;8.83;;;-0.50;64.80;;;;;;5011411;28;20246;-70
2022/03/21 02:53:30;;;;;;;20.93;9.77;;;-0.50;65.10;;;;;;5017713;28;20184;-70
2022/03/21 02:55:56;;;;;;;12.33;8.63;;;-0.50;65.10;;;;;;5010516;28;20173;-70
2022/03/21 02:58:22;;;;;;;21.97;11.03;;;-0.50;64.90;;;;;;5014402;28;20185;-70
2022/03/21 03:00:49;;;;;;;15.90;8.97;;;-0.50;65.00;;;;;;5010100;28;20932;-70
2022/03/21 03:03:14;;;;;;;23.03;9.70;;;-0.60;65.00;;;;;;5017349;28;20181;-70
2022/03/21 03:05:40;;;;;;;18.07;9.47;;;-0.60;65.00;;;;;;5014425;28;21973;-71
2022/03/21 03:08:06;;;;;;;19.20;9.23;;;-0.70;65.20;;;;;;5012056;28;20181;-70
2022/03/21 03:10:32;;;;;;;18.77;9.47;;;-0.70;65.20;;;;;;5015274;28;20228;-70
2022/03/21 03:12:57;;;;;;;12.67;8.77;;;-0.70;65.10;;;;;;5007478;28;20656;-70
2022/03/21 03:15:23;;;;;;;17.80;10.00;;;-0.70;65.30;;;;;;5013502;28;20271;-69
2022/03/21 03:17:49;;;;;;;16.07;8.80;;;-0.80;65.50;;;;;;5016593;28;20212;-70
2022/03/21 03:20:15;;;;;;;22.00;9.33;;;-0.80;65.60;;;;;;5015433;28;20212;-69
2022/03/21 03:22:42;;;;;;;22.27;9.43;;;-0.80;65.50;;;;;;5008873;28;20178;-69
2022/03/21 03:25:09;;;;;;;20.07;9.00;;;-0.90;65.80;;;;;;5015188;28;20181;-69
2022/03/21 03:27:34;;;;;;;18.43;10.40;;;-0.90;66.00;;;;;;5009646;28;20185;-70
2022/03/21 03:30:03;;;;;;;27.33;10.73;;;-0.90;66.00;;;;;;5015678;28;20188;-70
2022/03/21 03:32:29;;;;;;;16.07;8.93;;;-0.90;66.60;;;;;;5013847;28;20741;-72
2022/03/21 03:34:55;;;;;;;17.03;9.13;;;-1.00;66.70;;;;;;5014441;28;20183;-70
2022/03/21 03:37:21;;;;;;;21.80;10.50;;;-1.00;66.80;;;;;;5009866;28;20189;-70
2022/03/21 03:39:48;;;;;;;18.90;10.87;;;-1.00;66.60;;;;;;5014093;28;20232;-71
2022/03/21 03:42:14;;;;;;;25.40;10.17;;;-1.00;66.70;;;;;;5008441;28;20189;-70
2022/03/21 03:44:40;;;;;;;23.70;11.37;;;-1.10;66.80;;;;;;4999892;28;22111;-71
2022/03/21 03:47:06;;;;;;;19.23;10.27;;;-1.10;67.00;;;;;;4999887;28;20319;-69
2022/03/21 03:49:32;;;;;;;17.07;10.47;;;-1.10;67.00;;;;;;5016291;28;20191;-69
2022/03/21 03:51:58;;;;;;;16.73;8.80;;;-1.10;67.30;;;;;;5015641;28;20195;-70
2022/03/21 03:54:23;;;;;;;22.37;10.10;;;-1.10;67.20;;;;;;5012947;28;20180;-70
2022/03/21 03:56:49;;;;;;;17.20;9.43;;;-1.20;67.50;;;;;;5007476;28;20176;-70
2022/03/21 03:59:15;;;;;;;21.37;10.03;;;-1.20;67.60;;;;;;5016521;28;20969;-71
2022/03/21 04:01:40;;;;;;;22.90;9.60;;;-1.20;67.60;;;;;;5006929;28;20562;-71
2022/03/21 04:04:06;;;;;;;17.67;9.43;;;-1.20;67.80;;;;;;5016028;28;20180;-71
2022/03/21 04:06:32;;;;;;;29.23;11.23;;;-1.30;67.80;;;;;;5014743;28;20202;-70
2022/03/21 04:08:59;;;;;;;27.47;10.30;;;-1.30;67.40;;;;;;5009102;28;20210;-70
2022/03/21 04:11:25;;;;;;;24.77;10.43;;;-1.30;67.60;;;;;;5009629;28;20185;-71
2022/03/21 04:13:51;;;;;;;19.13;9.43;;;-1.30;67.90;;;;;;5007994;28;20181;-69
2022/03/21 04:16:17;;;;;;;17.77;8.43;;;-1.30;68.00;;;;;;5010201;28;20242;-70
2022/03/21 04:18:43;;;;;;;15.60;9.23;;;-1.30;68.00;;;;;;5008349;28;20216;-71
2022/03/21 04:21:09;;;;;;;17.10;9.00;;;-1.40;67.90;;;;;;5010423;28;20305;-70
2022/03/21 04:23:35;;;;;;;20.63;9.03;;;-1.40;68.10;;;;;;5014126;28;20177;-70
2022/03/21 04:26:01;;;;;;;16.63;7.73;;;-1.40;68.00;;;;;;5022026;28;20195;-70
2022/03/21 04:28:27;;;;;;;20.17;9.33;;;-1.40;67.90;;;;;;5012778;28;20189;-70
2022/03/21 04:30:52;;;;;;;18.17;8.33;;;-1.40;67.90;;;;;;5009873;28;20187;-71
2022/03/21 04:33:18;;;;;;;10.10;8.13;;;-1.40;68.10;;;;;;5012542;28;20212;-71
2022/03/21 04:35:44;;;;;;;12.40;7.57;;;-1.40;68.00;;;;;;5011169;28;20272;-70
2022/03/21 04:38:14;;;;;;;23.67;10.37;;;-1.40;68.50;;;;;;5018604;28;20180;-70
2022/03/21 04:40:45;;;;;;;16.47;8.80;;;-1.40;68.80;;;;;;5014709;28;20216;-70
2022/03/21 04:43:13;;;;;;;17.17;9.50;;;-1.30;68.70;;;;;;5013097;28;20188;-70
2022/03/21 04:45:39;;;;;;;24.07;10.17;;;-1.30;68.90;;;;;;5012110;28;20173;-69
2022/03/21 04:48:05;;;;;;;23.17;9.87;;;-1.30;69.10;;;;;;5015078;28;20317;-70
2022/03/21 04:50:32;;;;;;;22.70;10.33;;;-1.30;69.10;;;;;;5012734;28;20721;-71
2022/03/21 04:52:58;;;;;;;23.27;11.07;;;-1.30;69.10;;;;;;5014007;28;20222;-70
2022/03/21 04:55:24;;;;;;;26.93;10.20;;;-1.30;69.30;;;;;;5013121;28;21788;-71
2022/03/21 04:57:50;;;;;;;23.50;10.07;;;-1.30;69.30;;;;;;5011506;28;20172;-71
2022/03/21 05:00:16;;;;;;;20.77;9.50;;;-1.30;69.50;;;;;;5009792;28;20217;-72
2022/03/21 05:02:41;;;;;;;16.30;9.37;;;-1.30;69.60;;;;;;5010360;28;20180;-69
2022/03/21 05:05:11;;;;;;;17.33;8.77;;;-1.30;69.60;;;;;;5010007;28;20247;-70
2022/03/21 05:07:45;;;;;;;18.03;9.87;;;-1.30;69.70;;;;;;5011675;28;20568;-70
2022/03/21 05:10:14;;;;;;;20.03;10.23;;;-1.30;69.50;;;;;;5012187;28;21029;-70
2022/03/21 05:12:40;;;;;;;18.97;9.77;;;-1.30;69.50;;;;;;5007030;28;20184;-69
2022/03/21 05:15:07;;;;;;;16.10;8.63;;;-1.20;69.50;;;;;;5013200;28;20199;-70
2022/03/21 05:17:37;;;;;;;20.50;9.30;;;-1.20;69.60;;;;;;5014516;28;20180;-69
2022/03/21 05:20:27;;;;;;;17.07;9.37;;;-1.20;69.60;;;;;;5010812;28;20223;-70
2022/03/21 05:31:07;;;;;;;19.43;8.33;;;-1.00;70.20;;;;;;4992115;28;20204;-72
2022/03/21 05:36:22;;;;;;;16.73;8.27;;;-1.00;69.60;;;;;;4995184;28;20693;-71
2022/03/21 05:38:48;;;;;;;15.87;8.37;;;-0.90;69.50;;;;;;4991303;28;20190;-71
2022/03/21 05:41:13;;;;;;;13.77;7.07;;;-0.90;69.20;;;;;;4997112;28;20217;-69
2022/03/21 05:43:39;;;;;;;7.93;5.47;;;-0.80;68.10;;;;;;4989209;28;20279;-71
2022/03/21 05:46:05;;;;;;;12.83;7.50;;;-0.70;67.40;;;;;;4994506;28;20198;-71
2022/03/21 05:51:18;;;;;;;14.37;6.63;;;-0.50;67.00;;;;;;4996171;28;20204;-72
2022/03/21 05:53:45;;;;;;;10.10;6.67;;;-0.40;67.50;;;;;;5001040;28;20627;-70
2022/03/21 05:56:12;;;;;;;9.37;5.67;;;-0.30;66.50;;;;;;4993853;28;20220;-72
2022/03/21 05:58:37;;;;;;;6.87;5.03;;;-0.20;65.30;;;;;;4994008;28;20310;-71
2022/03/21 06:01:04;;;;;;;7.17;5.00;;;-0.10;65.30;;;;;;4996834;28;20987;-71
2022/03/21 06:03:30;;;;;;;7.67;4.67;;;0.10;65.20;;;;;;4993141;28;20227;-70
2022/03/21 06:05:57;;;;;;;7.60;4.87;;;0.20;64.20;;;;;;5002418;28;20209;-70
2022/03/21 06:08:24;;;;;;;11.37;4.17;;;0.30;63.80;;;;;;5008371;28;21308;-72
2022/03/21 06:10:50;;;;;;;10.60;4.10;;;0.40;63.80;;;;;;5010931;28;20177;-71
2022/03/21 06:13:16;;;;;;;8.50;3.97;;;0.60;63.50;;;;;;5013156;28;20627;-71
2022/03/21 06:15:42;;;;;;;3.13;2.90;;;0.70;62.20;;;;;;5009443;28;20663;-70
2022/03/21 06:18:11;;;;;;;3.67;3.37;;;0.80;61.20;;;;;;5019336;28;20180;-71
2022/03/21 06:20:39;;;;;;;5.00;2.97;;;0.90;61.10;;;;;;5010972;28;20205;-71
2022/03/21 06:23:05;;;;;;;4.50;3.13;;;1.10;61.40;;;;;;5017931;28;20218;-70
2022/03/21 06:25:31;;;;;;;4.07;2.80;;;1.10;61.10;;;;;;5009047;28;20243;-71
2022/03/21 06:27:57;;;;;;;7.33;2.77;;;1.30;61.20;;;;;;5014005;28;20185;-71
2022/03/21 06:30:23;;;;;;;5.37;3.70;;;1.40;61.20;;;;;;5011324;28;20195;-70
2022/03/21 06:32:49;;;;;;;3.93;3.57;;;1.50;61.10;;;;;;5010599;28;21430;-71
2022/03/21 06:35:14;;;;;;;5.27;3.17;;;1.50;60.40;;;;;;5018602;28;20177;-71
2022/03/21 06:37:41;;;;;;;5.00;3.53;;;1.60;59.90;;;;;;5011005;28;20651;-69
2022/03/21 06:40:09;;;;;;;5.37;3.47;;;1.70;59.70;;;;;;5010604;28;20299;-71
2022/03/21 06:42:35;;;;;;;4.27;3.87;;;1.80;60.30;;;;;;5010561;28;20654;-71
2022/03/21 06:45:02;;;;;;;3.47;3.00;;;1.90;60.10;;;;;;5013019;28;20180;-71
2022/03/21 06:47:27;;;;;;;5.83;3.77;;;2.00;60.00;;;;;;5009045;28;20268;-69
2022/03/21 06:49:53;;;;;;;6.33;4.20;;;2.10;60.00;;;;;;5010724;28;20781;-71
2022/03/21 06:52:19;;;;;;;6.83;4.17;;;2.20;59.40;;;;;;5014803;28;20608;-71
2022/03/21 06:54:49;;;;;;;4.07;3.73;;;2.30;59.40;;;;;;5012056;28;20683;-69
2022/03/21 06:57:16;;;;;;;5.87;4.33;;;2.30;59.40;;;;;;5011128;28;20544;-71
2022/03/21 06:59:43;;;;;;;5.53;4.00;;;2.40;58.70;;;;;;5005403;28;20208;-71
2022/03/21 07:02:09;;;;;;;3.87;3.50;;;2.50;57.60;;;;;;5011552;28;20234;-70
2022/03/21 07:04:34;;;;;;;6.30;3.47;;;2.50;57.70;;;;;;5013699;28;20185;-70
2022/03/21 07:07:00;;;;;;;8.10;4.10;;;2.50;58.20;;;;;;5008821;28;20215;-71
2022/03/21 07:09:26;;;;;;;6.67;4.27;;;2.60;58.20;;;;;;5013408;28;20738;-69
2022/03/21 07:11:52;;;;;;;5.97;3.70;;;2.70;58.20;;;;;;5012585;28;20251;-69
2022/03/21 07:14:19;;;;;;;7.07;3.90;;;2.80;57.60;;;;;;5008612;28;20191;-73
2022/03/21 07:16:44;;;;;;;6.23;4.67;;;2.90;57.60;;;;;;5010516;28;20206;-72
2022/03/21 07:19:10;;;;;;;6.63;4.20;;;3.00;57.60;;;;;;5008282;28;20184;-72
2022/03/21 07:21:36;;;;;;;8.07;4.87;;;3.10;56.70;;;;;;5015455;28;20560;-71
2022/03/21 07:24:02;;;;;;;6.13;4.17;;;3.10;56.30;;;;;;5010967;28;20181;-71
2022/03/21 07:26:27;;;;;;;6.90;4.87;;;3.10;55.90;;;;;;5015300;28;20270;-71
2022/03/21 07:28:55;;;;;;;5.27;4.33;;;3.10;56.40;;;;;;5003094;28;20223;-69
2022/03/21 07:31:20;;;;;;;9.27;4.57;;;3.20;56.20;;;;;;5011024;28;20283;-71
2022/03/21 07:33:46;;;;;;;6.87;4.37;;;3.20;56.60;;;;;;5006680;28;20731;-70
2022/03/21 07:36:11;;;;;;;7.27;4.73;;;3.30;57.00;;;;;;5006067;28;20287;-73
2022/03/21 07:38:37;;;;;;;9.40;4.80;;;3.40;57.20;;;;;;5009392;28;20187;-72
2022/03/21 07:41:07;;;;;;;6.40;5.10;;;3.50;56.60;;;;;;5008191;28;20592;-73
2022/03/21 07:43:36;;;;;;;6.30;4.37;;;3.60;56.20;;;;;;5010783;28;20180;-73
2022/03/21 07:48:47;;;;;;;5.47;4.53;;;3.80;56.80;;;;;;5013433;28;20287;-73
2022/03/21 07:51:14;;;;;;;9.60;5.30;;;3.90;56.60;;;;;;5012590;28;20307;-73
2022/03/21 07:53:40;;;;;;;6.33;4.77;;;4.00;56.60;;;;;;5010738;28;20836;-73
2022/03/21 07:56:06;;;;;;;7.67;5.40;;;4.20;56.50;;;;;;5008803;28;20717;-73
2022/03/21 07:58:32;;;;;;;7.27;4.97;;;4.40;56.30;;;;;;5011153;28;20211;-73
2022/03/21 08:01:01;;;;;;;6.70;4.40;;;4.50;55.80;;;;;;5005839;28;20221;-72
2022/03/21 08:03:27;;;;;;;9.47;5.23;;;4.60;55.40;;;;;;5004803;28;20268;-73
2022/03/21 08:05:54;;;;;;;5.07;4.60;;;4.80;55.20;;;;;;5004980;28;20282;-73
2022/03/21 08:08:20;;;;;;;8.60;5.87;;;4.90;55.00;;;;;;5006188;28;20180;-73
2022/03/21 08:10:46;;;;;;;5.93;4.53;;;5.10;54.80;;;;;;5006381;28;20211;-74
2022/03/21 08:13:17;;;;;;;11.07;5.60;;;5.30;54.90;;;;;;5007873;28;20191;-73
2022/03/21 08:15:51;;;;;;;6.37;5.50;;;5.60;55.00;;;;;;5007298;28;20185;-74
2022/03/21 08:18:17;;;;;;;5.23;4.83;;;5.90;54.10;;;;;;5009244;28;20199;-74
2022/03/21 08:20:43;;;;;;;4.97;4.57;;;6.20;53.00;;;;;;5015110;28;20618;-74
2022/03/21 08:23:14;;;;;;;8.60;6.27;;;6.40;53.00;;;;;;5012886;28;20855;-73
2022/03/21 08:25:43;;;;;;;8.03;5.30;;;6.70;52.70;;;;;;5016202;28;20181;-73
2022/03/21 08:28:10;;;;;;;8.83;6.07;;;7.00;52.10;;;;;;5014553;28;20264;-74
2022/03/21 08:30:37;;;;;;;7.43;6.00;;;7.50;52.30;;;;;;5012774;28;20188;-74
2022/03/21 08:33:07;;;;;;;6.90;5.80;;;8.10;51.70;;;;;;5014494;28;20180;-73
2022/03/21 08:35:38;;;;;;;7.57;5.57;;;8.70;50.20;;;;;;5014777;28;20339;-74
2022/03/21 08:38:05;;;;;;;9.37;6.00;;;9.20;50.10;;;;;;5014308;28;20179;-73
2022/03/21 08:40:31;;;;;;;7.57;6.03;;;9.80;49.00;;;;;;5013981;28;20208;-73
2022/03/21 08:42:57;;;;;;;9.00;5.90;;;10.40;48.70;;;;;;5014616;28;20735;-74
2022/03/21 08:45:23;;;;;;;12.80;7.30;;;11.00;48.60;;;;;;5012228;28;20181;-74
2022/03/21 08:47:50;;;;;;;8.03;6.70;;;11.80;48.50;;;;;;5012664;28;20584;-74
2022/03/21 08:50:17;;;;;;;8.70;6.50;;;12.70;47.30;;;;;;5012082;28;20188;-72
2022/03/21 08:52:43;;;;;;;8.53;6.30;;;13.70;46.60;;;;;;5011650;28;20275;-75
2022/03/21 08:55:09;;;;;;;7.78;5.80;;;14.50;44.10;;;;;;5012602;28;20188;-72
2022/03/21 08:57:36;;;;;;;6.55;5.63;;;15.10;43.60;;;;;;5013813;28;20180;-74
2022/03/21 09:00:05;;;;;;;13.35;6.07;;;15.70;42.60;;;;;;5011520;28;20315;-73
2022/03/21 09:02:31;;;;;;;6.72;5.82;;;15.90;42.20;;;;;;5012099;28;20262;-74
2022/03/21 09:04:58;;;;;;;6.25;5.65;;;16.10;42.00;;;;;;5008863;28;20193;-74
2022/03/21 09:07:24;;;;;;;8.18;6.45;;;16.50;41.60;;;;;;5016289;28;20200;-74
2022/03/21 09:09:50;;;;;;;6.88;6.03;;;16.90;40.90;;;;;;5014606;28;20255;-74
2022/03/21 09:12:16;;;;;;;7.15;6.45;;;17.30;40.30;;;;;;5018651;28;20243;-74
2022/03/21 09:14:41;;;;;;;6.05;5.55;;;17.20;39.50;;;;;;5020219;28;20272;-74
2022/03/21 09:17:08;;;;;;;8.02;6.15;;;17.00;39.90;;;;;;5016813;28;20218;-75
2022/03/21 09:19:33;;;;;;;6.80;6.20;;;16.80;39.60;;;;;;5018953;28;20208;-73
2022/03/21 09:21:59;;;;;;;6.25;5.75;;;16.80;39.40;;;;;;5015933;28;20618;-73
2022/03/21 09:24:25;;;;;;;6.70;5.72;;;16.90;40.00;;;;;;5015984;28;20735;-73
2022/03/21 09:26:51;;;;;;;12.45;6.35;;;17.20;39.70;;;;;;5015749;28;20283;-73
2022/03/21 09:29:18;;;;;;;8.05;5.50;;;17.60;40.10;;;;;;5018099;28;20181;-72
2022/03/21 09:31:44;;;;;;;6.35;5.53;;;18.20;38.70;;;;;;5013619;28;20177;-74
2022/03/21 09:34:12;;;;;;;6.03;5.55;;;18.60;39.30;;;;;;5018085;28;20250;-74
2022/03/21 09:36:38;;;;;;;6.10;5.50;;;19.20;38.80;;;;;;5017834;28;20177;-74
2022/03/21 09:39:06;;;;;;;6.93;6.20;;;19.60;36.70;;;;;;5013050;28;20181;-74
2022/03/21 09:41:32;;;;;;;7.05;5.63;;;19.60;38.20;;;;;;5017182;28;20279;-73
2022/03/21 09:44:01;;;;;;;6.90;6.20;;;19.70;37.50;;;;;;5009952;28;20181;-73
2022/03/21 09:46:27;;;;;;;7.13;6.43;;;19.80;36.80;;;;;;5014122;28;20184;-74
2022/03/21 09:48:57;;;;;;;6.95;6.28;;;19.60;37.70;;;;;;5022411;28;20242;-73
2022/03/21 09:51:28;;;;;;;7.38;6.43;;;19.70;37.10;;;;;;5018532;28;20583;-73
2022/03/21 09:53:54;;;;;;;7.47;6.32;;;20.10;38.00;;;;;;5017859;28;20640;-74
2022/03/21 09:56:21;;;;;;;6.88;6.00;;;20.40;36.60;;;;;;5016017;28;20184;-74
2022/03/21 09:58:47;;;;;;;6.13;5.63;;;20.60;37.30;;;;;;5018951;28;20219;-75
2022/03/21 10:01:14;;;;;;;6.70;6.10;;;20.50;36.20;;;;;;5019326;28;20208;-74
2022/03/21 10:03:41;;;;;;;10.07;6.85;;;19.70;36.90;;;;;;5017205;28;20780;-73
2022/03/21 10:06:29;;;;;;;6.75;5.53;;;19.20;37.00;;;;;;5016472;28;20207;-73
2022/03/21 10:09:11;;;;;;;6.30;5.70;;;19.00;36.90;;;;;;5011741;28;20185;-73
2022/03/21 10:11:37;;;;;;;6.65;6.05;;;19.30;37.50;;;;;;5017579;28;20204;-74
2022/03/21 10:14:23;;;;;;;6.85;6.20;;;19.80;37.90;;;;;;5017661;28;20181;-75
2022/03/21 10:17:00;;;;;;;6.97;6.15;;;20.20;36.80;;;;;;5018800;28;20304;-74
2022/03/21 10:19:27;;;;;;;7.28;6.38;;;20.50;36.10;;;;;;5020477;28;20184;-74
2022/03/21 10:22:08;;;;;;;6.97;6.25;;;20.60;35.50;;;;;;5017450;28;20179;-74
2022/03/21 10:24:37;;;;;;;9.30;6.07;;;20.50;36.20;;;;;;5017792;28;20287;-74
2022/03/21 10:27:03;;;;;;;6.32;5.82;;;20.60;36.60;;;;;;5026278;28;20805;-74
2022/03/21 10:29:31;;;;;;;6.47;5.88;;;21.00;36.90;;;;;;5020144;28;20625;-74
2022/03/21 10:31:58;;;;;;;7.05;6.18;;;21.40;36.30;;;;;;5011564;28;20185;-73
2022/03/21 10:34:30;;;;;;;6.65;6.03;;;21.90;36.60;;;;;;5014699;28;20218;-75
2022/03/21 10:37:09;;;;;;;6.63;5.85;;;22.40;35.70;;;;;;5017795;28;20224;-74
2022/03/21 10:39:40;;;;;;;6.55;5.95;;;22.90;35.60;;;;;;5015359;28;20687;-75
2022/03/21 10:42:06;;;;;;;6.10;5.60;;;23.00;35.40;;;;;;5017814;28;20197;-75
2022/03/21 10:44:33;;;;;;;6.78;5.65;;;23.20;35.30;;;;;;5016760;28;20650;-74
2022/03/21 10:47:03;;;;;;;10.95;7.28;;;23.50;34.70;;;;;;5013887;28;20650;-74
2022/03/21 10:49:37;;;;;;;6.55;6.05;;;23.70;34.40;;;;;;5015266;28;20187;-74
2022/03/21 10:52:05;;;;;;;6.75;6.15;;;23.60;35.00;;;;;;5009242;28;21157;-74
2022/03/21 10:54:48;;;;;;;7.40;6.20;;;23.40;34.80;;;;;;5010241;28;20180;-74
2022/03/21 10:57:33;;;;;;;6.43;5.95;;;23.30;34.50;;;;;;5004984;28;20212;-73
2022/03/21 11:00:12;;;;;;;6.40;5.90;;;23.30;35.00;;;;;;5009613;28;20674;-73
2022/03/21 11:03:09;;;;;;;8.18;6.25;;;23.80;34.70;;;;;;5013578;28;20186;-72
2022/03/21 11:05:43;;;;;;;6.93;6.35;;;24.20;34.40;;;;;;5007999;28;20200;-72
2022/03/21 11:08:11;;;;;;;6.47;6.07;;;24.20;34.80;;;;;;5014698;28;20617;-72
2022/03/21 11:10:38;;;;;;;6.22;5.78;;;24.60;34.40;;;;;;5016510;28;20217;-73
2022/03/21 11:13:06;;;;;;;6.18;5.78;;;24.70;33.40;;;;;;5009644;28;20184;-73
2022/03/21 11:15:35;;;;;;;6.40;5.80;;;24.60;34.20;;;;;;5007795;28;20575;-72
2022/03/21 11:18:01;;;;;;;5.72;5.30;;;24.60;34.20;;;;;;5010289;28;20575;-72
2022/03/21 11:20:31;;;;;;;7.50;5.63;;;24.70;33.40;;;;;;5008003;28;20181;-74
2022/03/21 11:22:58;;;;;;;6.05;5.55;;;25.00;33.90;;;;;;5007209;28;20184;-73
2022/03/21 11:25:29;;;;;;;6.03;5.57;;;25.10;33.80;;;;;;5007807;28;20589;-73
2022/03/21 11:27:56;;;;;;;5.68;5.32;;;25.20;34.40;;;;;;5011294;28;20192;-73
2022/03/21 11:30:30;;;;;;;5.60;4.90;;;25.20;33.90;;;;;;5006143;28;20272;-73
2022/03/21 11:33:12;;;;;;;5.65;5.15;;;25.10;33.30;;;;;;5011457;28;20267;-73
2022/03/21 11:35:48;;;;;;;6.45;5.95;;;25.30;33.50;;;;;;5009032;28;20237;-72
2022/03/21 11:38:24;;;;;;;6.95;5.63;;;25.40;32.50;;;;;;5012832;28;20176;-72
2022/03/21 11:40:51;;;;;;;5.43;5.03;;;24.80;33.10;;;;;;5004570;28;20787;-72
2022/03/21 11:43:19;;;;;;;6.05;5.45;;;24.60;33.70;;;;;;5014763;28;20196;-73
2022/03/21 11:45:59;;;;;;;5.90;5.32;;;24.70;33.80;;;;;;5013339;28;20187;-72
2022/03/21 11:48:24;;;;;;;5.63;5.15;;;24.50;33.90;;;;;;5015099;28;20238;-72
2022/03/21 11:50:56;;;;;;;6.00;5.40;;;24.20;34.10;;;;;;5006867;28;20685;-72
2022/03/21 11:53:31;;;;;;;6.35;5.85;;;23.70;33.60;;;;;;5012169;28;20988;-72
2022/03/21 11:55:57;;;;;;;5.50;5.00;;;23.50;34.00;;;;;;5007366;28;20226;-73
2022/03/21 11:58:23;;;;;;;5.47;5.07;;;23.70;33.70;;;;;;5010512;28;20188;-74
2022/03/21 12:01:07;;;;;;;5.97;5.47;;;23.80;33.90;;;;;;5007857;28;20597;-72
2022/03/21 12:03:34;;;;;;;6.15;5.65;;;24.10;33.40;;;;;;5011118;28;20239;-72
2022/03/21 12:06:32;;;;;;;6.85;6.20;;;24.00;33.80;;;;;;5008416;28;20203;-72
2022/03/21 12:09:11;;;;;;;7.40;6.40;;;23.90;33.10;;;;;;5009915;28;20322;-73
2022/03/21 12:11:46;;;;;;;6.40;5.80;;;23.90;33.70;;;;;;5013168;28;20365;-73
2022/03/21 12:14:36;;;;;;;5.88;5.38;;;24.20;33.40;;;;;;5007483;28;20213;-73
2022/03/21 12:17:01;;;;;;;6.43;5.90;;;24.30;33.40;;;;;;5011405;28;20185;-73
2022/03/21 12:19:48;;;;;;;5.97;5.60;;;24.50;33.10;;;;;;5004662;28;20189;-75
2022/03/21 12:22:43;;;;;;;5.35;5.03;;;24.50;32.70;;;;;;5005036;28;20647;-73
2022/03/21 12:25:15;;;;;;;5.78;5.38;;;24.60;33.80;;;;;;5013969;28;20184;-73
2022/03/21 12:27:45;;;;;;;6.45;5.20;;;24.40;33.30;;;;;;5005288;28;20180;-71
2022/03/21 12:30:31;;;;;;;5.95;5.45;;;24.20;33.30;;;;;;5008160;28;20216;-72
2022/03/21 12:33:22;;;;;;;5.78;5.18;;;24.20;32.60;;;;;;5008513;28;20191;-74
2022/03/21 12:35:51;;;;;;;5.88;5.38;;;24.00;33.80;;;;;;5007720;28;20189;-74
2022/03/21 12:38:34;;;;;;;6.45;5.80;;;24.10;33.10;;;;;;5010616;28;20185;-72
2022/03/21 12:41:03;;;;;;;7.03;6.40;;;24.10;33.80;;;;;;5009201;28;20185;-73
2022/03/21 12:43:30;;;;;;;7.05;6.38;;;24.00;33.30;;;;;;5003267;28;20302;-73
2022/03/21 12:46:05;;;;;;;5.82;5.43;;;23.90;33.50;;;;;;5004435;28;20185;-73
2022/03/21 12:48:31;;;;;;;7.25;6.50;;;23.70;34.10;;;;;;5007061;28;20183;-73
2022/03/21 12:50:57;;;;;;;7.32;6.68;;;23.70;33.70;;;;;;5000810;28;20224;-73
2022/03/21 12:53:34;;;;;;;6.75;6.00;;;23.20;33.60;;;;;;5008822;28;20207;-73
2022/03/21 12:56:04;;;;;;;6.97;6.32;;;22.30;33.60;;;;;;5006585;28;20238;-73
2022/03/21 12:58:29;;;;;;;7.20;6.53;;;21.40;35.00;;;;;;5008095;28;20196;-72
2022/03/21 13:01:00;;;;;;;7.80;6.35;;;21.20;34.90;;;;;;5011164;28;20683;-72
2022/03/21 13:03:26;;;;;;;7.60;7.03;;;21.10;35.20;;;;;;5012258;28;20184;-73
2022/03/21 13:11:31;;;;;;;7.55;6.90;;;20.60;35.60;;;;;;5008214;28;20219;-73
2022/03/21 13:14:15;;;;;;;7.88;6.93;;;20.50;35.70;;;;;;5011907;28;20888;-73
2022/03/21 13:16:59;;;;;;;7.53;6.93;;;19.90;35.90;;;;;;5009167;28;20180;-73